createdAt,value
2023-02-20T00:00:25.000Z,1.4
2023-02-20T00:01:23.714Z,1.5
2023-02-20T00:02:39.000Z,1.6
2023-02-20T00:03:38.102Z,1.5
2023-02-20T00:04:54.295Z,1.9
2023-02-20T00:06:10.489Z,1.6
2023-02-20T00:08:02.000Z,1.8
2023-02-20T00:08:42.877Z,1.8
2023-02-20T00:10:17.000Z,1.6
2023-02-20T00:11:15.264Z,1.8
2023-02-20T00:12:49.458Z,1.5
2023-02-20T00:14:05.652Z,1.7
2023-02-20T00:15:21.000Z,1.7
2023-02-20T00:16:20.039Z,1.6
2023-02-20T00:17:54.000Z,1.5
2023-02-20T00:18:52.547Z,1.6
2023-02-20T00:20:08.741Z,1.8
2023-02-20T00:21:24.935Z,1.9
2023-02-20T00:22:59.000Z,1.8
2023-02-20T00:23:57.322Z,1.6
2023-02-20T00:25:31.000Z,1.6
2023-02-20T00:26:47.711Z,1.6
2023-02-20T00:27:45.904Z,2.3
2023-02-20T00:29:02.098Z,1.5
2023-02-20T00:30:36.292Z,1.7
2023-02-20T00:31:34.485Z,1.9
2023-02-20T00:33:08.679Z,1.7
2023-02-20T00:34:06.873Z,1.9
2023-02-20T00:35:40.000Z,1.9
2023-02-20T00:36:38.278Z,1.5
2023-02-20T00:38:30.000Z,1.8
2023-02-20T00:39:28.665Z,2.3
2023-02-20T00:40:44.000Z,2
2023-02-20T00:41:43.052Z,2.1
2023-02-20T00:43:17.000Z,1.8
2023-02-20T00:44:33.458Z,1.9
2023-02-20T00:45:31.633Z,1.7
2023-02-20T00:47:05.847Z,1.6
2023-02-20T00:48:22.000Z,1.7
2023-02-20T00:49:20.215Z,1.7
2023-02-20T00:50:54.000Z,1.9
2023-02-20T00:52:10.602Z,2
2023-02-20T00:53:44.000Z,1.9
2023-02-20T00:54:43.011Z,1.8
2023-02-20T00:55:58.000Z,2
2023-02-20T00:57:14.404Z,1.9
2023-02-20T00:58:30.588Z,1.9
2023-02-20T00:59:28.782Z,1.9
2023-02-20T01:01:02.985Z,1.9
2023-02-20T01:02:01.169Z,2
2023-02-20T01:03:35.000Z,2
2023-02-20T01:04:51.557Z,2.2
2023-02-20T01:06:07.766Z,1.3
2023-02-20T01:07:23.958Z,2.2
2023-02-20T01:08:40.000Z,2.2
2023-02-20T01:09:56.341Z,1.8
2023-02-20T01:11:12.000Z,2.2
2023-02-20T01:12:28.720Z,1.8
2023-02-20T01:14:02.000Z,1.9
2023-02-20T01:15:01.000Z,2.1
2023-02-20T01:16:34.000Z,1.9
2023-02-20T01:18:49.000Z,1.9
2023-02-20T01:19:47.883Z,1.9
2023-02-20T01:21:21.093Z,1.9
2023-02-20T01:22:19.287Z,1.7
2023-02-20T01:23:53.480Z,2
2023-02-20T01:25:09.000Z,2.1
2023-02-20T01:26:25.867Z,2.2
2023-02-20T01:27:24.061Z,2.2
2023-02-20T01:28:58.000Z,2
2023-02-20T01:30:14.449Z,2.1
2023-02-20T01:31:30.000Z,2.2
2023-02-20T01:32:28.836Z,1.7
2023-02-20T01:34:02.052Z,2.2
2023-02-20T01:35:00.245Z,2.1
2023-02-20T01:36:34.000Z,1.8
2023-02-20T01:37:32.632Z,2.1
2023-02-20T01:39:06.000Z,2.2
2023-02-20T01:40:05.020Z,2
2023-02-20T01:41:39.000Z,2.1
2023-02-20T01:42:55.408Z,1.9
2023-02-20T01:43:53.601Z,2.1
2023-02-20T01:45:09.795Z,1.8
2023-02-20T01:46:25.989Z,2.1
2023-02-20T01:47:42.182Z,1.9
2023-02-20T01:49:16.000Z,2
2023-02-20T01:50:32.578Z,1.8
2023-02-20T01:51:47.000Z,2.5
2023-02-20T01:52:45.974Z,2.2
2023-02-20T01:54:20.167Z,1.9
2023-02-20T01:55:36.361Z,1.6
2023-02-20T01:56:52.554Z,2.5
2023-02-20T01:58:08.776Z,1.9
2023-02-20T01:59:24.962Z,2
2023-02-20T02:00:23.135Z,2
2023-02-20T02:01:39.329Z,1.8
2023-02-20T02:03:13.544Z,1.7
2023-02-20T02:04:29.716Z,1.9
2023-02-20T02:05:27.910Z,1.8
2023-02-20T02:07:19.000Z,2.1
2023-02-20T02:08:18.297Z,1.9
2023-02-20T02:09:16.490Z,2
2023-02-20T02:10:32.684Z,2
2023-02-20T02:12:06.000Z,2.3
2023-02-20T02:13:05.071Z,2
2023-02-20T02:14:39.290Z,2.1
2023-02-20T02:15:37.459Z,1.7
2023-02-20T02:16:52.669Z,1.9
2023-02-20T02:18:44.000Z,1.9
2023-02-20T02:19:43.000Z,2.3
2023-02-20T02:22:15.442Z,1.9
2023-02-20T02:23:31.000Z,2
2023-02-20T02:24:29.830Z,2
2023-02-20T02:25:46.023Z,1.9
2023-02-20T02:27:20.000Z,2.2
2023-02-20T02:28:36.436Z,1.9
2023-02-20T02:29:52.603Z,2.1
2023-02-20T02:30:50.796Z,1.9
2023-02-20T02:32:42.000Z,2.3
2023-02-20T02:33:41.183Z,2.2
2023-02-20T02:34:57.000Z,1.8
2023-02-20T02:35:55.571Z,1.8
2023-02-20T02:37:29.000Z,2
2023-02-20T02:38:27.958Z,1.8
2023-02-20T02:39:44.151Z,2
2023-02-20T02:41:00.344Z,2.2
2023-02-20T02:42:33.000Z,2.2
2023-02-20T02:43:31.748Z,2.1
2023-02-20T02:45:05.956Z,2.6
2023-02-20T02:47:38.000Z,2.8
2023-02-20T02:48:36.520Z,2.2
2023-02-20T02:50:10.713Z,2.6
2023-02-20T02:51:08.907Z,2.7
2023-02-20T02:52:43.115Z,2.2
2023-02-20T02:53:41.293Z,2.4
2023-02-20T02:55:15.000Z,2.5
2023-02-20T02:56:13.679Z,3.1
2023-02-20T02:57:47.000Z,2
2023-02-20T02:59:04.066Z,2.3
2023-02-20T03:00:20.286Z,2.6
2023-02-20T03:01:18.452Z,2.6
2023-02-20T03:03:09.000Z,2.4
2023-02-20T03:04:07.868Z,2.4
2023-02-20T03:05:24.047Z,2.4
2023-02-20T03:06:40.254Z,2.3
2023-02-20T03:07:56.435Z,2.6
2023-02-20T03:09:12.640Z,2.3
2023-02-20T03:10:10.821Z,2.4
2023-02-20T03:11:45.013Z,2.5
2023-02-20T03:13:01.000Z,2.7
2023-02-20T03:13:59.399Z,2.4
2023-02-20T03:15:33.000Z,2.6
2023-02-20T03:16:49.799Z,2.5
2023-02-20T03:18:05.996Z,2.1
2023-02-20T03:19:22.202Z,2.3
2023-02-20T03:20:38.368Z,2.4
2023-02-20T03:21:36.563Z,2.6
2023-02-20T03:23:10.757Z,2.4
2023-02-20T03:24:27.000Z,2.2
2023-02-20T03:25:43.281Z,2.6
2023-02-20T03:26:41.461Z,2.9
2023-02-20T03:28:15.000Z,2
2023-02-20T03:29:13.851Z,2.6
2023-02-20T03:31:05.000Z,2.5
2023-02-20T03:31:46.240Z,2.2
2023-02-20T03:33:02.435Z,2.6
2023-02-20T03:34:36.654Z,2.1
2023-02-20T03:35:52.000Z,2
2023-02-20T03:37:09.018Z,2.4
2023-02-20T03:38:25.000Z,2.2
2023-02-20T03:39:23.409Z,2.5
2023-02-20T03:40:56.648Z,2.5
2023-02-20T03:41:54.814Z,2.5
2023-02-20T03:43:29.000Z,2.8
2023-02-20T03:44:45.216Z,2.8
2023-02-20T03:46:01.000Z,2.7
2023-02-20T03:47:17.622Z,2.6
2023-02-20T03:48:33.813Z,2.3
2023-02-20T03:49:49.984Z,2.9
2023-02-20T03:51:06.000Z,2.6
2023-02-20T03:52:22.389Z,2.8
2023-02-20T03:53:38.569Z,2.6
2023-02-20T03:54:54.794Z,2.3
2023-02-20T03:56:10.975Z,2.3
2023-02-20T03:57:27.168Z,2.1
2023-02-20T03:58:43.000Z,2.5
2023-02-20T03:59:41.544Z,2.4
2023-02-20T04:00:56.755Z,2.6
2023-02-20T04:02:30.950Z,2.8
2023-02-20T04:03:47.000Z,2.3
2023-02-20T04:04:45.340Z,3.1
2023-02-20T04:06:19.000Z,2.5
2023-02-20T04:07:35.755Z,2.4
2023-02-20T04:08:51.926Z,2.8
2023-02-20T04:09:50.121Z,2.8
2023-02-20T04:11:24.331Z,2.4
2023-02-20T04:12:22.511Z,2.2
2023-02-20T04:13:56.706Z,2.3
2023-02-20T04:15:12.901Z,2.5
2023-02-20T04:16:11.096Z,2.7
2023-02-20T04:17:27.291Z,2.4
2023-02-20T04:19:00.520Z,3
2023-02-20T04:19:58.696Z,2.4
2023-02-20T04:21:32.000Z,2.8
2023-02-20T04:22:31.086Z,2.6
2023-02-20T04:24:05.000Z,3.3
2023-02-20T04:25:21.000Z,2.2
2023-02-20T04:26:37.692Z,2.6
2023-02-20T04:27:53.866Z,2.5
2023-02-20T04:29:10.000Z,2.7
2023-02-20T04:30:26.000Z,2
2023-02-20T04:31:24.452Z,2.7
2023-02-20T04:32:40.646Z,2.9
2023-02-20T04:33:56.842Z,2.7
2023-02-20T04:35:13.036Z,2.7
2023-02-20T04:36:47.000Z,2.4
2023-02-20T04:37:45.547Z,3.1
2023-02-20T04:39:19.743Z,2.2
2023-02-20T04:40:35.937Z,2.8
2023-02-20T04:41:52.160Z,2.6
2023-02-20T04:42:50.327Z,2.8
2023-02-20T04:44:24.000Z,2.9
2023-02-20T04:45:22.717Z,2.4
2023-02-20T04:46:56.935Z,2.5
2023-02-20T04:47:55.107Z,2.4
2023-02-20T04:49:11.302Z,2.7
2023-02-20T04:50:27.497Z,2.4
2023-02-20T04:52:01.000Z,2.6
2023-02-20T04:53:17.887Z,2.5
2023-02-20T04:54:16.082Z,2.5
2023-02-20T04:55:32.277Z,2.8
2023-02-20T04:57:23.000Z,3.3
2023-02-20T04:58:03.682Z,2.7
2023-02-20T04:59:37.877Z,3
2023-02-20T05:00:36.072Z,2.2
2023-02-20T05:02:10.296Z,2.7
2023-02-20T05:03:08.462Z,3
2023-02-20T05:04:42.672Z,2.6
2023-02-20T05:05:58.851Z,2.5
2023-02-20T05:07:15.047Z,2.2
2023-02-20T05:08:13.241Z,2.7
2023-02-20T05:09:29.437Z,2.5
2023-02-20T05:10:45.631Z,2.8
2023-02-20T05:12:19.855Z,2.4
2023-02-20T05:13:35.056Z,2.5
2023-02-20T05:14:51.000Z,2.8
2023-02-20T05:15:49.427Z,2.8
2023-02-20T05:17:41.000Z,2.6
2023-02-20T05:18:39.817Z,2.4
2023-02-20T05:19:56.040Z,2.4
2023-02-20T05:20:54.207Z,2.5
2023-02-20T05:22:28.402Z,2.8
2023-02-20T05:23:26.597Z,3.2
2023-02-20T05:25:00.000Z,2.7
2023-02-20T05:26:17.020Z,3.1
2023-02-20T05:27:15.182Z,2.7
2023-02-20T05:28:49.397Z,3.2
2023-02-20T05:30:04.000Z,2.5
2023-02-20T05:31:20.782Z,2.5
2023-02-20T05:32:36.000Z,2.9
2023-02-20T05:33:53.000Z,2.9
2023-02-20T05:34:51.367Z,2.8
2023-02-20T05:36:07.562Z,2.5
2023-02-20T05:37:41.000Z,2.7
2023-02-20T05:38:39.952Z,2.6
2023-02-20T05:40:14.000Z,2.4
2023-02-20T05:41:12.342Z,2.9
2023-02-20T05:42:46.000Z,3
2023-02-20T05:44:02.732Z,2.8
2023-02-20T05:45:18.000Z,2.9
2023-02-20T05:46:17.121Z,2.5
2023-02-20T05:48:07.000Z,3
2023-02-20T05:49:06.551Z,2.7
2023-02-20T05:50:22.751Z,3.1
2023-02-20T05:51:39.063Z,2.3
2023-02-20T05:52:55.000Z,2.7
2023-02-20T05:54:11.465Z,2.8
2023-02-20T05:55:27.646Z,2.5
2023-02-20T05:56:43.823Z,2.5
2023-02-20T05:58:00.000Z,3.2
2023-02-20T05:58:58.213Z,3.2
2023-02-20T06:00:32.408Z,2.9
2023-02-20T06:01:48.000Z,2.9
2023-02-20T06:03:22.000Z,2.8
2023-02-20T06:04:21.014Z,2.9
2023-02-20T06:05:37.000Z,3.1
2023-02-20T06:07:10.000Z,2.4
2023-02-20T06:08:09.000Z,2.5
2023-02-20T06:09:25.773Z,2.9
2023-02-20T06:10:59.000Z,2.9
2023-02-20T06:11:40.163Z,2.7
2023-02-20T06:13:13.374Z,2.3
2023-02-20T06:14:11.569Z,2.6
2023-02-20T06:15:45.000Z,2.9
2023-02-20T06:17:01.984Z,2.5
2023-02-20T06:18:18.000Z,2.7
2023-02-20T06:19:16.349Z,3
2023-02-20T06:20:50.544Z,2.6
2023-02-20T06:22:06.738Z,2.3
2023-02-20T06:23:22.934Z,2.3
2023-02-20T06:24:21.128Z,2.4
2023-02-20T06:25:55.360Z,2.8
2023-02-20T06:26:53.518Z,2.5
2023-02-20T06:28:27.714Z,2.4
2023-02-20T06:29:43.930Z,2.7
2023-02-20T06:30:59.000Z,2.6
2023-02-20T06:32:15.313Z,2.8
2023-02-20T06:33:31.000Z,2.9
2023-02-20T06:34:47.703Z,3
2023-02-20T06:36:03.899Z,3
2023-02-20T06:37:02.093Z,2.8
2023-02-20T06:38:36.000Z,3
2023-02-20T06:39:34.483Z,3
2023-02-20T06:41:08.000Z,2.8
2023-02-20T06:42:06.873Z,3
2023-02-20T06:43:23.069Z,3
2023-02-20T06:44:39.263Z,3
2023-02-20T06:46:13.000Z,3.1
2023-02-20T06:47:29.653Z,3.5
2023-02-20T06:48:45.000Z,3.4
2023-02-20T06:49:44.043Z,3.5
2023-02-20T06:51:17.273Z,3.6
2023-02-20T06:52:15.448Z,3.4
2023-02-20T06:53:49.643Z,3
2023-02-20T06:54:47.838Z,3.4
2023-02-20T06:56:22.000Z,3
2023-02-20T06:57:20.228Z,3.9
2023-02-20T06:58:36.424Z,3.5
2023-02-20T07:00:10.618Z,4.3
2023-02-20T07:01:26.000Z,3.7
2023-02-20T07:02:43.000Z,5.2
2023-02-20T07:03:59.000Z,3.5
2023-02-20T07:05:15.420Z,3.4
2023-02-20T07:06:31.000Z,3.8
2023-02-20T07:07:47.822Z,4.4
2023-02-20T07:09:04.000Z,4.5
2023-02-20T07:10:20.327Z,4.6
2023-02-20T07:11:36.000Z,3.8
2023-02-20T07:12:52.689Z,4.4
2023-02-20T07:14:08.885Z,3.9
2023-02-20T07:15:25.098Z,3.9
2023-02-20T07:16:41.000Z,3.7
2023-02-20T07:17:39.469Z,3.4
2023-02-20T07:19:13.000Z,4
2023-02-20T07:20:11.860Z,4.1
2023-02-20T07:21:46.086Z,4
2023-02-20T07:23:02.000Z,4.1
2023-02-20T07:24:18.000Z,4.5
2023-02-20T07:25:34.640Z,3.8
2023-02-20T07:26:32.835Z,4.1
2023-02-20T07:27:49.030Z,3.7
2023-02-20T07:29:22.242Z,3.2
2023-02-20T07:30:20.437Z,3.9
2023-02-20T07:31:54.000Z,4.3
2023-02-20T07:33:10.846Z,3.8
2023-02-20T07:34:27.055Z,4.6
2023-02-20T07:35:25.217Z,4
2023-02-20T07:36:59.432Z,3.4
2023-02-20T07:38:15.607Z,4.2
2023-02-20T07:39:31.000Z,3.4
2023-02-20T07:40:29.998Z,3.5
2023-02-20T07:42:04.193Z,3.7
2023-02-20T07:43:20.406Z,3.6
2023-02-20T07:44:36.000Z,4
2023-02-20T07:45:34.778Z,4.2
2023-02-20T07:47:08.000Z,4.1
2023-02-20T07:48:07.168Z,3.2
2023-02-20T07:49:58.000Z,3.7
2023-02-20T07:50:57.558Z,3.4
2023-02-20T07:52:13.000Z,3.3
2023-02-20T07:53:11.949Z,3.3
2023-02-20T07:54:46.000Z,3.6
2023-02-20T07:55:44.461Z,3.4
2023-02-20T07:57:00.656Z,3.2
2023-02-20T07:58:16.851Z,3.3
2023-02-20T07:59:51.000Z,3.7
2023-02-20T08:01:07.000Z,3.9
2023-02-20T08:02:23.000Z,3.6
2023-02-20T08:03:39.000Z,3.4
2023-02-20T08:04:55.000Z,3.1
2023-02-20T08:05:54.024Z,3.5
2023-02-20T08:07:45.000Z,4
2023-02-20T08:08:26.415Z,3.2
2023-02-20T08:10:00.000Z,3.3
2023-02-20T08:10:58.806Z,3
2023-02-20T08:12:32.000Z,3
2023-02-20T08:13:30.214Z,3.1
2023-02-20T08:15:04.437Z,3.6
2023-02-20T08:16:20.604Z,3.4
2023-02-20T08:17:36.000Z,3.5
2023-02-20T08:18:53.000Z,3.5
2023-02-20T08:20:09.000Z,3.2
2023-02-20T08:21:42.000Z,2.9
2023-02-20T08:22:41.000Z,3.4
2023-02-20T08:23:39.776Z,3.5
2023-02-20T08:25:13.000Z,3.2
2023-02-20T08:26:30.000Z,2.8
2023-02-20T08:27:46.000Z,3.1
2023-02-20T08:29:02.557Z,3.3
2023-02-20T08:30:18.787Z,3.1
2023-02-20T08:31:33.994Z,2.9
2023-02-20T08:32:50.000Z,3.3
2023-02-20T08:33:48.355Z,3.5
2023-02-20T08:35:22.000Z,3.2
2023-02-20T08:36:20.747Z,3.1
2023-02-20T08:37:54.943Z,3.3
2023-02-20T08:39:11.000Z,3.2
2023-02-20T08:40:27.000Z,2.6
2023-02-20T08:41:43.530Z,3.4
2023-02-20T08:42:59.761Z,2.9
2023-02-20T08:44:15.941Z,3
2023-02-20T08:45:32.000Z,3.1
2023-02-20T08:46:48.347Z,2.9
2023-02-20T08:48:04.000Z,2.9
2023-02-20T08:49:02.703Z,3.8
2023-02-20T08:50:36.900Z,3.2
2023-02-20T08:51:35.095Z,2.6
2023-02-20T08:53:09.000Z,2.9
2023-02-20T08:55:41.000Z,2.4
2023-02-20T08:56:39.877Z,2.4
2023-02-20T08:58:13.089Z,2.9
2023-02-20T08:59:29.000Z,2.5
2023-02-20T09:00:45.514Z,2.7
2023-02-20T09:01:43.676Z,2.5
2023-02-20T09:03:17.000Z,2.6
2023-02-20T09:04:34.000Z,2.7
2023-02-20T09:05:50.000Z,2.4
2023-02-20T09:07:06.458Z,2.6
2023-02-20T09:08:22.000Z,2.9
2023-02-20T09:09:20.850Z,2.7
2023-02-20T09:10:55.047Z,2.4
2023-02-20T09:11:53.241Z,2.4
2023-02-20T09:13:27.463Z,2.8
2023-02-20T09:14:25.632Z,2.7
2023-02-20T09:15:59.829Z,2.5
2023-02-20T09:17:16.024Z,2.6
2023-02-20T09:18:32.341Z,2.5
2023-02-20T09:21:04.732Z,2.2
2023-02-20T09:22:02.927Z,2.3
2023-02-20T09:23:37.124Z,2.3
2023-02-20T09:24:35.319Z,2.5
2023-02-20T09:26:09.000Z,2.2
2023-02-20T09:27:07.710Z,2.6
2023-02-20T09:28:41.937Z,2.3
2023-02-20T09:29:58.125Z,2.2
2023-02-20T09:31:14.298Z,2.4
2023-02-20T09:33:46.000Z,2.1
2023-02-20T09:34:44.884Z,2.8
2023-02-20T09:36:19.000Z,2.5
2023-02-20T09:37:35.000Z,2.9
2023-02-20T09:39:09.000Z,2.3
2023-02-20T09:40:07.829Z,2.1
2023-02-20T09:41:23.000Z,2.7
2023-02-20T09:42:22.180Z,2.1
2023-02-20T09:43:56.000Z,2.3
2023-02-20T09:45:12.571Z,2.3
2023-02-20T09:46:28.000Z,2
2023-02-20T09:47:26.962Z,1.9
2023-02-20T09:49:01.000Z,1.6
2023-02-20T09:49:59.352Z,2.4
2023-02-20T09:51:33.547Z,1.9
2023-02-20T09:52:31.741Z,2.5
2023-02-20T09:54:05.937Z,2.4
2023-02-20T09:55:04.132Z,2.2
2023-02-20T09:56:38.000Z,1.7
2023-02-20T09:57:54.522Z,1.9
2023-02-20T09:59:10.744Z,2.4
2023-02-20T10:00:26.938Z,2
2023-02-20T10:01:43.108Z,2.3
2023-02-20T10:02:59.332Z,2.4
2023-02-20T10:04:14.000Z,2.4
2023-02-20T10:05:30.000Z,2.1
2023-02-20T10:06:46.000Z,2
2023-02-20T10:07:45.099Z,2.2
2023-02-20T10:09:19.294Z,2.5
2023-02-20T10:10:35.490Z,2.4
2023-02-20T10:11:51.000Z,2.5
2023-02-20T10:12:49.881Z,1.8
2023-02-20T10:14:23.000Z,2.3
2023-02-20T10:15:21.293Z,2.8
2023-02-20T10:16:55.488Z,2.3
2023-02-20T10:17:53.684Z,2.6
2023-02-20T10:19:27.000Z,2.1
2023-02-20T10:20:44.000Z,2.1
2023-02-20T10:22:00.000Z,2.1
2023-02-20T10:24:32.000Z,2.1
2023-02-20T10:25:30.856Z,2.3
2023-02-20T10:27:05.000Z,2.4
2023-02-20T10:28:03.247Z,2.8
2023-02-20T10:29:19.443Z,2.2
2023-02-20T10:30:35.637Z,2
2023-02-20T10:32:09.954Z,2.3
2023-02-20T10:33:08.149Z,2.3
2023-02-20T10:34:42.346Z,2.2
2023-02-20T10:35:58.541Z,2.2
2023-02-20T10:37:14.000Z,2.1
2023-02-20T10:38:48.000Z,2.2
2023-02-20T10:39:47.156Z,2.2
2023-02-20T10:41:03.343Z,2.4
2023-02-20T10:42:19.517Z,2.1
2023-02-20T10:43:17.712Z,2.5
2023-02-20T10:44:51.908Z,2.1
2023-02-20T10:45:50.103Z,2.2
2023-02-20T10:47:24.298Z,2.6
2023-02-20T10:48:40.493Z,2
2023-02-20T10:49:56.688Z,2.3
2023-02-20T10:51:12.913Z,1.8
2023-02-20T10:52:28.000Z,2.2
2023-02-20T10:53:44.330Z,2.3
2023-02-20T10:55:00.000Z,2.2
2023-02-20T10:56:16.702Z,1.8
2023-02-20T10:57:32.000Z,2.1
2023-02-20T10:58:31.071Z,2.2
2023-02-20T11:00:05.000Z,2.4
2023-02-20T11:01:21.461Z,2.2
2023-02-20T11:02:37.682Z,1.9
2023-02-20T11:03:35.850Z,2.1
2023-02-20T11:05:10.000Z,2.7
2023-02-20T11:06:26.265Z,2
2023-02-20T11:07:42.458Z,1.9
2023-02-20T11:08:57.000Z,1.9
2023-02-20T11:09:55.844Z,2.2
2023-02-20T11:11:12.039Z,2.4
2023-02-20T11:12:46.000Z,2.3
2023-02-20T11:15:18.624Z,2.5
2023-02-20T11:16:16.819Z,2.4
2023-02-20T11:17:51.000Z,2.1
2023-02-20T11:18:49.210Z,2.3
2023-02-20T11:20:23.405Z,2.1
2023-02-20T11:21:21.600Z,1.8
2023-02-20T11:22:37.795Z,2
2023-02-20T11:23:53.990Z,2.3
2023-02-20T11:25:28.185Z,1.9
2023-02-20T11:28:00.000Z,2.4
2023-02-20T11:28:58.771Z,2.2
2023-02-20T11:30:32.000Z,2.3
2023-02-20T11:31:31.161Z,2.3
2023-02-20T11:33:05.000Z,2
2023-02-20T11:34:21.578Z,2.6
2023-02-20T11:35:37.000Z,2.4
2023-02-20T11:36:35.941Z,1.7
2023-02-20T11:38:10.137Z,2.3
2023-02-20T11:39:26.000Z,1.6
2023-02-20T11:40:42.000Z,2.5
2023-02-20T11:41:58.748Z,2.1
2023-02-20T11:43:15.000Z,2.4
2023-02-20T11:44:13.233Z,2.6
2023-02-20T11:45:47.451Z,2.2
2023-02-20T11:47:03.000Z,2.3
2023-02-20T11:48:19.852Z,2.2
2023-02-20T11:49:18.014Z,2.2
2023-02-20T11:50:52.000Z,2.1
2023-02-20T11:52:08.405Z,2.2
2023-02-20T11:53:24.638Z,2.4
2023-02-20T11:54:40.817Z,2.1
2023-02-20T11:55:57.017Z,2.3
2023-02-20T11:56:55.185Z,2.5
2023-02-20T11:58:29.000Z,2.7
2023-02-20T11:59:27.575Z,2.2
2023-02-20T12:01:01.000Z,2.2
2023-02-20T12:01:59.965Z,3.3
2023-02-20T12:03:34.000Z,2.1
2023-02-20T12:04:50.000Z,2.5
2023-02-20T12:06:06.000Z,2.5
2023-02-20T12:07:04.745Z,3.4
2023-02-20T12:08:38.000Z,3.2
2023-02-20T12:09:37.135Z,2.5
2023-02-20T12:11:11.330Z,2.4
2023-02-20T12:12:09.526Z,3.1
2023-02-20T12:13:43.000Z,3.2
2023-02-20T12:15:17.000Z,3.1
2023-02-20T12:16:16.233Z,2.8
2023-02-20T12:17:32.000Z,2.8
2023-02-20T12:18:48.000Z,2.4
2023-02-20T12:19:46.818Z,2.1
2023-02-20T12:21:21.000Z,2.8
2023-02-20T12:22:37.247Z,3.2
2023-02-20T12:23:53.440Z,2.7
2023-02-20T12:24:51.600Z,3.4
2023-02-20T12:26:25.823Z,2.5
2023-02-20T12:27:41.991Z,2.7
2023-02-20T12:28:58.186Z,3.1
2023-02-20T12:30:14.382Z,2.9
2023-02-20T12:31:30.000Z,3.5
2023-02-20T12:32:46.814Z,3.1
2023-02-20T12:33:44.968Z,2.7
2023-02-20T12:35:19.187Z,3
2023-02-20T12:36:35.000Z,3.4
2023-02-20T12:37:33.675Z,3.9
2023-02-20T12:39:07.870Z,3.5
2023-02-20T12:40:24.066Z,3.6
2023-02-20T12:41:40.000Z,3.2
2023-02-20T12:42:56.000Z,3.8
2023-02-20T12:44:12.000Z,2.7
2023-02-20T12:45:10.847Z,3.2
2023-02-20T12:46:45.042Z,2.7
2023-02-20T12:48:01.263Z,3.6
2023-02-20T12:49:17.433Z,3.2
2023-02-20T12:50:15.628Z,3.6
2023-02-20T12:51:49.000Z,4.4
2023-02-20T12:52:48.017Z,3.7
2023-02-20T12:54:22.210Z,3.9
2023-02-20T12:55:38.403Z,3.9
2023-02-20T12:56:54.000Z,3.2
2023-02-20T12:57:52.788Z,3.4
2023-02-20T12:59:26.000Z,3.8
2023-02-20T13:00:24.190Z,3.5
2023-02-20T13:01:40.383Z,4.4
2023-02-20T13:02:56.576Z,4.1
2023-02-20T13:04:48.000Z,4.8
2023-02-20T13:05:47.000Z,4.4
2023-02-20T13:07:03.000Z,4.2
2023-02-20T13:08:19.000Z,3.9
2023-02-20T13:09:35.542Z,3.9
2023-02-20T13:10:33.735Z,4.4
2023-02-20T13:12:07.000Z,5.4
2023-02-20T13:13:06.121Z,5
2023-02-20T13:14:40.000Z,5.4
2023-02-20T13:15:56.000Z,6.1
2023-02-20T13:17:12.000Z,5.4
2023-02-20T13:18:28.000Z,5.5
2023-02-20T13:19:27.087Z,5.6
2023-02-20T13:21:01.280Z,5.2
2023-02-20T13:22:17.000Z,4.8
2023-02-20T13:23:33.706Z,5.2
2023-02-20T13:24:48.000Z,5.8
2023-02-20T13:25:47.069Z,5
2023-02-20T13:27:21.000Z,6.3
2023-02-20T13:28:37.497Z,6.2
2023-02-20T13:29:53.648Z,5.1
2023-02-20T13:31:09.000Z,5.8
2023-02-20T13:32:26.065Z,5.3
2023-02-20T13:33:42.227Z,4.1
2023-02-20T13:35:16.000Z,4.5
2023-02-20T13:35:56.613Z,4.8
2023-02-20T13:37:30.806Z,5.7
2023-02-20T13:38:28.999Z,5.4
2023-02-20T13:40:03.192Z,5.7
2023-02-20T13:41:19.000Z,5.3
2023-02-20T13:42:53.000Z,5.4
2023-02-20T13:43:51.771Z,5.8
2023-02-20T13:45:07.000Z,6
2023-02-20T13:46:24.157Z,6.1
2023-02-20T13:47:40.350Z,6.1
2023-02-20T13:48:38.543Z,4.9
2023-02-20T13:50:12.778Z,5.5
2023-02-20T13:51:11.050Z,5.7
2023-02-20T13:52:45.243Z,5.3
2023-02-20T13:53:43.436Z,7.5
2023-02-20T13:55:17.629Z,5.6
2023-02-20T13:56:15.822Z,4.5
2023-02-20T13:57:50.000Z,5.8
2023-02-20T14:00:22.402Z,5.7
2023-02-20T14:01:20.595Z,4.3
2023-02-20T14:02:54.788Z,5.4
2023-02-20T14:04:10.910Z,5.1
2023-02-20T14:05:27.101Z,4.5
2023-02-20T14:06:43.287Z,5.6
2023-02-20T14:07:58.576Z,5.3
2023-02-20T14:09:14.687Z,5.7
2023-02-20T14:10:30.963Z,4.9
2023-02-20T14:11:47.156Z,5.7
2023-02-20T14:13:03.349Z,5.3
2023-02-20T14:14:01.542Z,6.4
2023-02-20T14:15:35.735Z,5.5
2023-02-20T14:16:33.928Z,6.1
2023-02-20T14:18:08.121Z,4.7
2023-02-20T14:19:06.314Z,5.9
2023-02-20T14:20:58.000Z,4.6
2023-02-20T14:21:38.700Z,5.2
2023-02-20T14:23:12.893Z,4.7
2023-02-20T14:24:29.086Z,3.7
2023-02-20T14:25:27.279Z,5.1
2023-02-20T14:27:01.394Z,4.3
2023-02-20T14:28:16.681Z,4.1
2023-02-20T14:29:32.794Z,4.7
2023-02-20T14:31:46.282Z,4.6
2023-02-20T14:33:20.000Z,4.8
2023-02-20T14:34:18.668Z,4.6
2023-02-20T14:35:52.000Z,4.7
2023-02-20T14:37:09.054Z,4.7
2023-02-20T14:38:25.246Z,4.2
2023-02-20T14:39:41.374Z,4.2
2023-02-20T14:40:56.582Z,4.6
2023-02-20T14:41:54.848Z,5.1
2023-02-20T14:43:29.041Z,5.9
2023-02-20T14:44:45.172Z,4.2
2023-02-20T14:46:01.427Z,3.8
2023-02-20T14:46:59.621Z,4.6
2023-02-20T14:48:33.813Z,4.3
2023-02-20T14:49:50.007Z,3.7
2023-02-20T14:51:06.131Z,4.1
2023-02-20T14:52:04.392Z,3.9
2023-02-20T14:53:38.000Z,3.6
2023-02-20T14:54:36.779Z,3.9
2023-02-20T14:56:10.972Z,3.3
2023-02-20T14:57:27.100Z,3.8
2023-02-20T14:58:43.286Z,3.8
2023-02-20T14:59:59.000Z,4.4
2023-02-20T15:01:15.000Z,3.5
2023-02-20T15:03:48.000Z,3.4
2023-02-20T15:05:04.243Z,4
2023-02-20T15:06:20.000Z,3.4
2023-02-20T15:07:18.710Z,3.5
2023-02-20T15:08:52.000Z,4.1
2023-02-20T15:09:51.096Z,3.3
2023-02-20T15:11:42.000Z,3.3
2023-02-20T15:12:59.000Z,3.3
2023-02-20T15:13:39.676Z,3.8
2023-02-20T15:16:30.062Z,3.4
2023-02-20T15:17:28.255Z,3.4
2023-02-20T15:19:01.389Z,2.8
2023-02-20T15:19:59.657Z,3.6
2023-02-20T15:21:33.775Z,4
2023-02-20T15:22:50.043Z,3.5
2023-02-20T15:24:06.000Z,3.7
2023-02-20T15:25:04.429Z,3.4
2023-02-20T15:26:38.622Z,4.1
2023-02-20T15:27:54.815Z,3.6
2023-02-20T15:29:10.934Z,3.1
2023-02-20T15:30:27.000Z,2.7
2023-02-20T15:31:43.000Z,3.9
2023-02-20T15:32:59.507Z,3.4
2023-02-20T15:34:15.000Z,3.1
2023-02-20T15:35:31.901Z,3.2
2023-02-20T15:36:47.000Z,3.7
2023-02-20T15:37:45.375Z,3.4
2023-02-20T15:39:19.000Z,3.1
2023-02-20T15:41:51.877Z,3.9
2023-02-20T15:43:08.080Z,3.6
2023-02-20T15:44:24.340Z,3
2023-02-20T15:45:22.533Z,2.9
2023-02-20T15:46:56.727Z,3.8
2023-02-20T15:47:54.920Z,3.3
2023-02-20T15:49:29.000Z,2.8
2023-02-20T15:50:45.000Z,3.6
2023-02-20T15:52:01.000Z,3.8
2023-02-20T15:54:33.885Z,3.1
2023-02-20T15:55:50.000Z,3.4
2023-02-20T15:57:06.000Z,3.4
2023-02-20T15:58:22.385Z,3.3
2023-02-20T15:59:37.000Z,3.7
2023-02-20T16:00:53.000Z,3.5
2023-02-20T16:02:10.000Z,3.7
2023-02-20T16:03:08.253Z,3.8
2023-02-20T16:04:42.446Z,2.8
2023-02-20T16:05:58.639Z,3.4
2023-02-20T16:07:14.764Z,3.1
2023-02-20T16:08:13.025Z,3.8
2023-02-20T16:09:47.000Z,3.4
2023-02-20T16:10:45.411Z,4.6
2023-02-20T16:12:19.604Z,3.6
2023-02-20T16:13:17.797Z,3.4
2023-02-20T16:14:51.923Z,3.7
2023-02-20T16:15:50.305Z,3.4
2023-02-20T16:17:24.498Z,3.8
2023-02-20T16:18:40.000Z,3.4
2023-02-20T16:19:56.884Z,3.3
2023-02-20T16:21:13.000Z,4.3
2023-02-20T16:22:11.270Z,3.3
2023-02-20T16:23:27.463Z,3.5
2023-02-20T16:25:01.000Z,3.5
2023-02-20T16:26:17.787Z,3.6
2023-02-20T16:27:34.042Z,3.2
2023-02-20T16:28:50.000Z,4
2023-02-20T16:30:06.365Z,3.2
2023-02-20T16:31:22.622Z,3.7
2023-02-20T16:32:38.000Z,3.8
2023-02-20T16:33:37.008Z,4
2023-02-20T16:35:10.218Z,3.1
2023-02-20T16:36:08.410Z,3.8
2023-02-20T16:37:42.000Z,4
2023-02-20T16:38:40.796Z,4
2023-02-20T16:40:14.989Z,3.7
2023-02-20T16:41:31.182Z,3.2
2023-02-20T16:42:47.308Z,3.5
2023-02-20T16:44:03.568Z,3.2
2023-02-20T16:45:19.698Z,4.1
2023-02-20T16:46:35.000Z,3.6
2023-02-20T16:47:52.000Z,3.7
2023-02-20T16:48:50.340Z,3.7
2023-02-20T16:50:24.533Z,3.5
2023-02-20T16:51:22.726Z,3.9
2023-02-20T16:52:55.936Z,3.2
2023-02-20T16:54:12.058Z,3.7
2023-02-20T16:55:28.000Z,4.2
2023-02-20T16:56:44.514Z,3.9
2023-02-20T16:57:42.707Z,3.6
2023-02-20T16:59:16.840Z,3.4
2023-02-20T17:00:50.000Z,3.7
2023-02-20T17:01:49.222Z,3.6
2023-02-20T17:03:05.000Z,3.2
2023-02-20T17:04:03.674Z,3.5
2023-02-20T17:05:37.000Z,4
2023-02-20T17:06:53.984Z,3.5
2023-02-20T17:08:27.000Z,4.3
2023-02-20T17:09:26.446Z,3.4
2023-02-20T17:10:42.638Z,2.9
2023-02-20T17:11:40.832Z,4.2
2023-02-20T17:13:13.976Z,3.7
2023-02-20T17:14:30.157Z,2.9
2023-02-20T17:15:46.364Z,3.6
2023-02-20T17:17:02.000Z,3.8
2023-02-20T17:19:17.007Z,3.4
2023-02-20T17:21:08.000Z,3.3
2023-02-20T17:22:07.393Z,3.5
2023-02-20T17:23:23.000Z,3.3
2023-02-20T17:24:21.779Z,3.2
2023-02-20T17:25:55.000Z,3.4
2023-02-20T17:27:12.093Z,2.9
2023-02-20T17:28:28.357Z,3.5
2023-02-20T17:29:44.551Z,3.2
2023-02-20T17:31:00.744Z,2.9
2023-02-20T17:32:34.000Z,2.8
2023-02-20T17:33:33.000Z,3.4
2023-02-20T17:34:49.323Z,3
2023-02-20T17:36:05.000Z,3.1
2023-02-20T17:37:03.709Z,3.4
2023-02-20T17:38:37.958Z,3
2023-02-20T17:39:36.216Z,3.3
2023-02-20T17:41:10.409Z,3.7
2023-02-20T17:42:26.537Z,3.3
2023-02-20T17:43:42.795Z,3.6
2023-02-20T17:44:40.988Z,3.1
2023-02-20T17:46:15.117Z,2.6
2023-02-20T17:47:31.375Z,2.8
2023-02-20T17:48:47.000Z,3.3
2023-02-20T17:50:03.697Z,3.2
2023-02-20T17:51:19.000Z,2.5
2023-02-20T17:52:18.147Z,3.2
2023-02-20T17:54:10.000Z,3.3